»·PEaware :: AIB2055 KBFI-KRNO

AIB2055 :: KBFI-KRNO

FLIGHT INFORMATION

Flight Status: Arrived
Operator:
Airbus Industrie
More flights by this operator :: More flights under this callsign
Pilot: Max W. (2591)
Aircraft: AIRBUS A320
(A320)
More flights by this aircraft type
Origin: KBFI Boeing Field/King Co Intl
United States
Destination: KRNO Reno/Tahoe Intl
United States
More flights between these airports :: More routes between these airports
Route: +CBAIN1 TAOMA J5 HARTT EELZA2
File this flight plan on PilotEdge
Remarks:
Altitude:
(Current/Filed)
39,000ft
Speed:
(Current/Filed)
450kts
Departed: 03-Sep-18 06:07 PM
Arrived: 03-Sep-18 07:27 PM
Distance/Time
Traveled:
494nm/1:20
Distance/Time
To Go:
Arrived

Flight Plot

Page will automatically refresh every two minutes.

Flight plan parsing failed; only flown route is shown


Map Options




Map Legend


Flown Route
Filed Route
Departure Airport
Arrival Airport
Navaid (VOR, NDB)
Fix

Horizontal Profiles

Position Reports

Time Latitude Longitude Heading Altitude Ground
Speed
03-Sep-18 17:52 47.532905 -122.307660 239 27ft 0kts
03-Sep-18 17:53 47.532905 -122.307660 239 27ft 0kts
03-Sep-18 17:54 47.532905 -122.307660 239 27ft 0kts
03-Sep-18 17:55 47.532905 -122.307660 239 27ft 0kts
03-Sep-18 17:56 47.532905 -122.307660 239 27ft 0kts
03-Sep-18 17:57 47.532905 -122.307660 239 27ft 0kts
03-Sep-18 17:58 47.532905 -122.307660 239 27ft 0kts
03-Sep-18 17:59 47.532905 -122.307660 239 27ft 0kts
03-Sep-18 18:00 47.532905 -122.307660 239 27ft 0kts
03-Sep-18 18:01 47.532809 -122.308043 272 27ft 7kts
03-Sep-18 18:02 47.530805 -122.305363 113 27ft 0kts
03-Sep-18 18:03 47.530805 -122.305363 113 27ft 0kts
03-Sep-18 18:04 47.530805 -122.305363 113 27ft 0kts
03-Sep-18 18:05 47.530805 -122.305363 113 27ft 0kts
03-Sep-18 18:06 47.528075 -122.302391 150 27ft 37kts
03-Sep-18 18:07 47.517496 -122.293555 147 27ft 21kts
03-Sep-18 18:08 47.516952 -122.291468 342 27ft 9kts
03-Sep-18 18:09 47.540924 -122.311463 337 1179ft 185kts
03-Sep-18 18:10 47.590432 -122.350324 327 2190ft 213kts
03-Sep-18 18:11 47.619802 -122.430515 261 6247ft 246kts
03-Sep-18 18:12 47.574586 -122.506598 198 9854ft 291kts
03-Sep-18 18:13 47.487021 -122.509100 165 12718ft 346kts
03-Sep-18 18:14 47.398044 -122.447085 160 15894ft 368kts
03-Sep-18 18:14 47.320001 -122.391149 161 18210ft 384kts
03-Sep-18 18:15 47.222023 -122.321129 161 20700ft 403kts
03-Sep-18 18:17 47.101744 -122.235558 162 23282ft 422kts
03-Sep-18 18:17 47.012734 -122.172519 162 24953ft 435kts
03-Sep-18 18:18 46.902297 -122.100228 172 27039ft 435kts
03-Sep-18 18:19 46.789120 -122.056119 172 28653ft 445kts
03-Sep-18 18:21 46.648122 -122.001329 173 30407ft 457kts
03-Sep-18 18:22 46.541024 -121.959849 172 31588ft 465kts
03-Sep-18 18:22 46.444918 -121.922773 173 32518ft 471kts
03-Sep-18 18:23 46.318290 -121.874168 173 33858ft 472kts
03-Sep-18 18:24 46.191985 -121.825974 173 35232ft 468kts
03-Sep-18 18:25 46.066903 -121.778494 173 36486ft 466kts
03-Sep-18 18:26 45.942559 -121.731550 173 37042ft 470kts
03-Sep-18 18:27 45.819941 -121.685417 173 37031ft 478kts
03-Sep-18 18:28 45.691688 -121.636291 170 37028ft 478kts
03-Sep-18 18:29 45.573280 -121.591912 170 37032ft 477kts
03-Sep-18 18:30 45.445073 -121.544572 170 37030ft 479kts
03-Sep-18 18:31 45.321269 -121.498927 170 37029ft 480kts
03-Sep-18 18:32 45.202736 -121.455277 170 37029ft 480kts
03-Sep-18 18:33 45.073621 -121.408055 169 37029ft 479kts
03-Sep-18 18:34 44.946548 -121.361760 167 37031ft 475kts
03-Sep-18 18:35 44.826298 -121.318157 168 37083ft 475kts
03-Sep-18 18:36 44.700000 -121.272559 168 37094ft 475kts
03-Sep-18 18:37 44.572668 -121.226785 168 37093ft 475kts
03-Sep-18 18:38 44.444583 -121.180950 168 37093ft 475kts
03-Sep-18 18:39 44.316909 -121.135469 168 37093ft 475kts
03-Sep-18 18:40 44.189165 -121.090166 168 37097ft 476kts
03-Sep-18 18:41 44.061568 -121.045119 168 37100ft 476kts
03-Sep-18 18:42 43.933573 -121.000133 168 37103ft 476kts
03-Sep-18 18:43 43.812453 -120.957748 168 37102ft 476kts
03-Sep-18 18:44 43.683894 -120.912951 168 37103ft 476kts
03-Sep-18 18:45 43.556080 -120.868613 168 37103ft 476kts
03-Sep-18 18:46 43.428674 -120.824607 168 37103ft 476kts
03-Sep-18 18:47 43.300568 -120.780551 168 37102ft 476kts
03-Sep-18 18:48 43.174401 -120.737303 168 37105ft 461kts
03-Sep-18 18:49 43.050140 -120.694963 168 37105ft 461kts
03-Sep-18 18:50 42.925763 -120.652759 166 37107ft 465kts
03-Sep-18 18:51 42.808471 -120.613083 166 37135ft 463kts
03-Sep-18 18:52 42.683859 -120.571106 166 37116ft 462kts
03-Sep-18 18:53 42.560324 -120.529669 166 37095ft 461kts
03-Sep-18 18:54 42.436233 -120.490086 167 37091ft 460kts
03-Sep-18 18:55 42.311909 -120.452800 167 37091ft 460kts
03-Sep-18 18:56 42.187377 -120.415604 167 37096ft 460kts
03-Sep-18 18:57 42.062879 -120.378570 167 37102ft 460kts
03-Sep-18 18:58 41.942231 -120.342823 168 37103ft 460kts
03-Sep-18 18:59 41.823220 -120.307696 168 37082ft 460kts
03-Sep-18 19:00 41.699192 -120.271231 168 37063ft 460kts
03-Sep-18 19:01 41.574527 -120.234724 168 37064ft 460kts
03-Sep-18 19:02 41.449926 -120.198379 168 37067ft 460kts
03-Sep-18 19:03 41.325325 -120.162177 168 37070ft 460kts
03-Sep-18 19:04 41.200467 -120.126041 168 37071ft 460kts
03-Sep-18 19:05 41.075641 -120.090037 168 37069ft 460kts
03-Sep-18 19:06 40.951393 -120.054320 169 37064ft 458kts
03-Sep-18 19:07 40.836878 -120.021467 168 35770ft 446kts
03-Sep-18 19:08 40.719366 -119.983522 167 33905ft 434kts
03-Sep-18 19:09 40.604431 -119.946494 167 32031ft 421kts
03-Sep-18 19:10 40.492796 -119.910648 167 30151ft 409kts
03-Sep-18 19:11 40.384187 -119.875888 167 28292ft 397kts
03-Sep-18 19:12 40.279045 -119.842353 167 26430ft 386kts
03-Sep-18 19:13 40.176857 -119.809860 167 24595ft 376kts
03-Sep-18 19:14 40.075436 -119.777746 167 24119ft 378kts
03-Sep-18 19:15 39.979361 -119.723477 152 21764ft 394kts
03-Sep-18 19:16 39.882018 -119.678098 179 19465ft 383kts
03-Sep-18 19:17 39.781118 -119.674966 180 17396ft 372kts
03-Sep-18 19:18 39.680667 -119.671112 176 14148ft 355kts
03-Sep-18 19:19 39.585645 -119.661454 176 10595ft 335kts
03-Sep-18 19:20 39.503923 -119.656222 182 9997ft 258kts
03-Sep-18 19:21 39.435030 -119.654230 179 9757ft 243kts
03-Sep-18 19:22 39.368016 -119.655225 210 9104ft 240kts
03-Sep-18 19:23 39.354889 -119.723657 280 8449ft 190kts
03-Sep-18 19:24 39.382342 -119.768528 348 7862ft 176kts
03-Sep-18 19:25 39.425216 -119.769216 358 6331ft 152kts
03-Sep-18 19:27 39.465978 -119.769270 356 4904ft 138kts
03-Sep-18 19:28 39.498333 -119.769287 358 4418ft 66kts
03-Sep-18 19:29 39.503655 -119.770804 289 4418ft 6kts

Navigation Log

Ident Type
Flight plan parsing failed, navigation log unavailable